createdAt,value
2018-02-11T08:40:12.782Z,993.68
2018-02-11T08:41:22.001Z,993.66
2018-02-11T08:42:31.228Z,993.68
2018-02-11T08:43:40.179Z,993.66
2018-02-11T08:44:49.400Z,993.63
2018-02-11T08:45:58.087Z,993.65
2018-02-11T08:47:06.779Z,993.64
2018-02-11T08:48:16.270Z,993.63
2018-02-11T08:49:25.225Z,993.66
2018-02-11T08:50:34.179Z,993.65
2018-02-11T08:51:42.869Z,993.71
2018-02-11T08:52:52.631Z,993.67
2018-02-11T08:54:01.321Z,993.66
2018-02-11T08:55:10.352Z,993.7
2018-02-11T08:56:19.043Z,993.69
2018-02-11T08:57:28.000Z,993.72
2018-02-11T08:58:36.692Z,993.71
2018-02-11T08:59:45.910Z,993.7
2018-02-11T09:00:55.172Z,993.72
2018-02-11T09:02:04.399Z,993.7
2018-02-11T09:03:13.354Z,993.78
2018-02-11T09:04:22.042Z,993.72
2018-02-11T09:05:30.999Z,993.76
2018-02-11T09:06:39.955Z,993.83
2018-02-11T09:07:48.913Z,993.75
2018-02-11T09:08:57.604Z,993.8
2018-02-11T09:10:06.558Z,993.8
2018-02-11T09:11:15.250Z,993.79
2018-02-11T09:12:23.941Z,993.78
2018-02-11T09:13:32.897Z,993.84
2018-02-11T09:14:41.849Z,993.85
2018-02-11T09:15:50.538Z,993.8
2018-02-11T09:16:59.224Z,993.82
2018-02-11T09:18:08.446Z,993.82
2018-02-11T09:19:17.671Z,993.86
2018-02-11T09:20:26.618Z,993.87
2018-02-11T09:21:35.582Z,993.86
2018-02-11T09:22:44.272Z,993.89
2018-02-11T09:23:53.758Z,993.87
2018-02-11T09:25:02.709Z,993.87
2018-02-11T09:26:11.667Z,993.9
2018-02-11T09:27:20.632Z,993.84
2018-02-11T09:28:29.316Z,993.9
2018-02-11T09:29:38.269Z,993.89
2018-02-11T09:30:46.960Z,993.93
2018-02-11T09:31:56.649Z,993.93
2018-02-11T09:33:06.138Z,993.97
2018-02-11T09:34:15.360Z,993.95
2018-02-11T09:35:24.592Z,993.93
2018-02-11T09:36:33.553Z,993.88
2018-02-11T09:37:42.318Z,993.86
2018-02-11T09:38:51.008Z,993.92
2018-02-11T09:40:00.495Z,993.93
2018-02-11T09:41:09.723Z,993.98
2018-02-11T09:42:18.414Z,993.93
2018-02-11T09:43:27.107Z,993.93
2018-02-11T09:44:36.063Z,993.95
2018-02-11T09:45:45.284Z,993.97
2018-02-11T09:46:53.983Z,993.92
2018-02-11T09:48:02.936Z,993.94
2018-02-11T09:49:11.629Z,993.88
2018-02-11T09:50:20.640Z,994
2018-02-11T09:51:29.541Z,993.99
2018-02-11T09:52:38.757Z,993.99
2018-02-11T09:53:47.715Z,994
2018-02-11T09:54:57.206Z,993.95
2018-02-11T09:56:06.163Z,994.07
2018-02-11T09:57:15.394Z,994.04
2018-02-11T09:58:24.354Z,994.14
2018-02-11T09:59:33.123Z,994.06
2018-02-11T10:00:41.812Z,994.05
2018-02-11T10:01:51.032Z,994.05
2018-02-11T10:03:00.251Z,994.07
2018-02-11T10:04:09.287Z,994.02
2018-02-11T10:05:17.977Z,994.06
2018-02-11T10:06:26.667Z,994.13
2018-02-11T10:07:35.356Z,994.12
2018-02-11T10:08:44.314Z,994.12
2018-02-11T10:09:53.270Z,994.13
2018-02-11T10:11:02.492Z,994.17
2018-02-11T10:12:11.715Z,994.2
2018-02-11T10:13:20.668Z,994.2
2018-02-11T10:14:29.887Z,994.2
2018-02-11T10:15:38.576Z,994.2
2018-02-11T10:16:48.068Z,994.18
2018-02-11T10:17:57.289Z,994.2
2018-02-11T10:19:06.246Z,994.17
2018-02-11T10:20:14.931Z,994.17
2018-02-11T10:21:23.887Z,994.19
2018-02-11T10:22:32.849Z,994.23
2018-02-11T10:23:41.607Z,994.21
2018-02-11T10:24:50.836Z,994.3
2018-02-11T10:25:59.527Z,994.26
2018-02-11T10:27:08.748Z,994.25
2018-02-11T10:28:17.706Z,994.37
2018-02-11T10:29:26.678Z,994.42
2018-02-11T10:30:35.896Z,994.41
2018-02-11T10:31:44.929Z,994.42
2018-02-11T10:32:53.889Z,994.45
2018-02-11T10:34:02.848Z,994.42
2018-02-11T10:35:11.538Z,994.39
2018-02-11T10:36:20.497Z,994.42
2018-02-11T10:37:29.453Z,994.4
2018-02-11T10:38:38.166Z,994.44
2018-02-11T10:39:47.099Z,994.45
2018-02-11T10:40:56.049Z,994.45
2018-02-11T10:42:05.275Z,994.52
2018-02-11T10:43:14.231Z,994.43
2018-02-11T10:44:23.186Z,994.49
2018-02-11T10:45:32.144Z,994.5
2018-02-11T10:46:41.107Z,994.47
2018-02-11T10:47:50.325Z,994.52
2018-02-11T10:48:59.016Z,994.58
2018-02-11T10:50:07.968Z,994.53
2018-02-11T10:51:16.658Z,994.57
2018-02-11T10:52:25.613Z,994.51
2018-02-11T10:53:34.303Z,994.56
2018-02-11T10:54:42.992Z,994.62
2018-02-11T10:55:51.686Z,994.64
2018-02-11T10:57:00.912Z,994.61
2018-02-11T10:58:09.863Z,994.66
2018-02-11T10:59:19.087Z,994.69
2018-02-11T11:00:28.045Z,994.66
2018-02-11T11:01:37.002Z,994.65
2018-02-11T11:02:45.691Z,994.74
2018-02-11T11:03:54.914Z,994.69
2018-02-11T11:05:03.602Z,994.75
2018-02-11T11:06:12.554Z,994.74
2018-02-11T11:07:21.510Z,994.77
2018-02-11T11:08:30.472Z,994.74
2018-02-11T11:09:39.428Z,994.62
2018-02-11T11:10:48.914Z,994.69
2018-02-11T11:11:57.871Z,994.69
2018-02-11T11:13:06.827Z,994.73
2018-02-11T11:14:15.805Z,994.7
2018-02-11T11:15:24.474Z,994.69
2018-02-11T11:16:33.431Z,994.73
2018-02-11T11:17:42.382Z,994.74
2018-02-11T11:18:51.601Z,994.75
2018-02-11T11:20:00.567Z,994.77
2018-02-11T11:21:09.528Z,994.75
2018-02-11T11:22:18.483Z,994.81
2018-02-11T11:23:27.173Z,994.77
2018-02-11T11:24:36.128Z,994.78
2018-02-11T11:25:45.086Z,994.84
2018-02-11T11:26:54.316Z,994.79
2018-02-11T11:28:03.006Z,994.82
2018-02-11T11:29:12.227Z,994.77
2018-02-11T11:30:21.185Z,994.78
2018-02-11T11:31:30.140Z,994.75
2018-02-11T11:32:38.834Z,994.79
2018-02-11T11:33:48.052Z,994.81
2018-02-11T11:34:57.012Z,994.78
2018-02-11T11:36:05.700Z,994.82
2018-02-11T11:37:14.655Z,994.87
2018-02-11T11:38:23.608Z,994.85
2018-02-11T11:39:32.566Z,994.79
2018-02-11T11:40:41.256Z,994.78
2018-02-11T11:41:49.946Z,994.84
2018-02-11T11:42:58.899Z,994.84
2018-02-11T11:44:08.131Z,994.85
2018-02-11T11:45:16.818Z,994.8
2018-02-11T11:46:26.042Z,994.86
2018-02-11T11:47:34.998Z,994.83
2018-02-11T11:48:43.687Z,994.91
2018-02-11T11:49:52.380Z,994.86
2018-02-11T11:51:01.344Z,994.88
2018-02-11T11:52:10.301Z,994.8
2018-02-11T11:53:19.256Z,994.87
2018-02-11T11:54:28.492Z,994.88
2018-02-11T11:55:37.446Z,994.85
2018-02-11T11:56:46.726Z,994.92
2018-02-11T11:57:55.683Z,994.92
2018-02-11T11:59:04.917Z,994.92
2018-02-11T12:00:14.136Z,995
2018-02-11T12:01:22.826Z,994.94
2018-02-11T12:02:31.522Z,995.01
2018-02-11T12:03:40.745Z,994.98
2018-02-11T12:04:49.967Z,995.04
2018-02-11T12:05:59.459Z,995
2018-02-11T12:07:08.410Z,994.95
2018-02-11T12:08:17.630Z,994.96
2018-02-11T12:09:26.319Z,995.07
2018-02-11T12:10:35.546Z,995.1
2018-02-11T12:11:44.237Z,995.04
2018-02-11T12:12:52.926Z,995.17
2018-02-11T12:14:02.462Z,995.04
2018-02-11T12:15:11.424Z,995.07
2018-02-11T12:16:20.116Z,995.11
2018-02-11T12:17:28.877Z,995.1
2018-02-11T12:18:38.102Z,995.11
2018-02-11T12:19:47.058Z,995.16
2018-02-11T12:20:55.751Z,995.18
2018-02-11T12:22:04.709Z,995.11
2018-02-11T12:23:13.931Z,995.2
2018-02-11T12:24:22.623Z,995.16
2018-02-11T12:25:31.319Z,995.19
2018-02-11T12:26:40.008Z,995.27
2018-02-11T12:27:48.962Z,995.25
2018-02-11T12:28:57.652Z,995.24
2018-02-11T12:30:06.608Z,995.21
2018-02-11T12:31:15.620Z,995.27
2018-02-11T12:32:24.837Z,995.23
2018-02-11T12:33:33.794Z,995.24
2018-02-11T12:34:42.750Z,995.24
2018-02-11T12:35:51.440Z,995.26
2018-02-11T12:37:00.923Z,995.29
2018-02-11T12:38:10.146Z,995.23
2018-02-11T12:39:19.373Z,995.3
2018-02-11T12:40:28.731Z,995.29
2018-02-11T12:41:37.654Z,995.33
2018-02-11T12:42:46.615Z,995.34
2018-02-11T12:43:55.305Z,995.28
2018-02-11T12:45:04.533Z,995.35
2018-02-11T12:46:13.225Z,995.27
2018-02-11T12:47:21.912Z,995.33
2018-02-11T12:48:30.608Z,995.32
2018-02-11T12:49:39.564Z,995.39
2018-02-11T12:50:48.255Z,995.41
2018-02-11T12:51:57.210Z,995.34
2018-02-11T12:53:06.961Z,995.46
2018-02-11T12:54:15.912Z,995.41
2018-02-11T12:55:25.405Z,995.44
2018-02-11T12:56:34.094Z,995.47
2018-02-11T12:57:42.782Z,995.45
2018-02-11T12:58:51.471Z,995.45
2018-02-11T13:00:00.165Z,995.42
2018-02-11T13:01:09.923Z,995.51
2018-02-11T13:02:19.146Z,995.48
2018-02-11T13:03:27.835Z,995.42
2018-02-11T13:04:37.322Z,995.56
2018-02-11T13:05:46.282Z,995.51
2018-02-11T13:06:54.970Z,995.5
2018-02-11T13:08:04.452Z,995.55
2018-02-11T13:09:13.671Z,995.66
2018-02-11T13:10:22.632Z,995.53
2018-02-11T13:11:31.588Z,995.62
2018-02-11T13:12:40.939Z,995.66
2018-02-11T13:13:50.188Z,995.52
2018-02-11T13:14:59.678Z,995.62
2018-02-11T13:16:08.629Z,995.6
2018-02-11T13:17:17.588Z,995.51
2018-02-11T13:18:26.543Z,995.54
2018-02-11T13:19:35.498Z,995.57
2018-02-11T13:20:44.186Z,995.53
2018-02-11T13:21:53.140Z,995.58
2018-02-11T13:23:02.096Z,995.54
2018-02-11T13:24:11.049Z,995.54
2018-02-11T13:25:19.741Z,995.66
2018-02-11T13:26:28.698Z,995.58
2018-02-11T13:27:37.943Z,995.61
2018-02-11T13:28:46.876Z,995.59
2018-02-11T13:29:55.567Z,995.68
2018-02-11T13:31:04.787Z,995.69
2018-02-11T13:32:14.008Z,995.72
2018-02-11T13:33:22.964Z,995.79
2018-02-11T13:34:32.204Z,995.68
2018-02-11T13:35:41.439Z,995.73
2018-02-11T13:36:50.392Z,995.73
2018-02-11T13:37:59.345Z,995.7
2018-02-11T13:39:09.100Z,995.71
2018-02-11T13:40:18.053Z,995.71
2018-02-11T13:41:26.743Z,995.72
2018-02-11T13:42:35.697Z,995.8
2018-02-11T13:43:44.649Z,995.78
2018-02-11T13:44:53.343Z,995.75
2018-02-11T13:46:03.099Z,995.83
2018-02-11T13:47:12.131Z,995.8
2018-02-11T13:48:21.361Z,995.83
2018-02-11T13:49:30.051Z,995.86
2018-02-11T13:50:39.003Z,995.93
2018-02-11T13:51:47.691Z,996.04
2018-02-11T13:52:57.180Z,995.88
2018-02-11T13:54:05.870Z,995.96
2018-02-11T13:55:14.830Z,995.96
2018-02-11T13:56:23.790Z,995.94
2018-02-11T13:57:33.013Z,995.98
2018-02-11T13:58:42.015Z,995.94
2018-02-11T13:59:50.976Z,996.01
2018-02-11T14:01:00.473Z,995.95
2018-02-11T14:02:09.432Z,995.83
2018-02-11T14:03:18.394Z,995.83
2018-02-11T14:04:27.082Z,995.94
2018-02-11T14:05:36.304Z,996.01
2018-02-11T14:06:44.999Z,995.96
2018-02-11T14:07:53.952Z,996.03
2018-02-11T14:09:03.186Z,996.04
2018-02-11T14:10:12.147Z,996.08
2018-02-11T14:11:21.108Z,996.06
2018-02-11T14:12:30.062Z,996.03
2018-02-11T14:13:38.749Z,995.97
2018-02-11T14:14:47.989Z,996.08
2018-02-11T14:15:56.952Z,996.11
2018-02-11T14:17:05.906Z,996.08
2018-02-11T14:18:14.857Z,996.11
2018-02-11T14:19:23.557Z,996.24
2018-02-11T14:20:32.240Z,996.19
2018-02-11T14:21:41.504Z,996.19
2018-02-11T14:22:50.466Z,996.15
2018-02-11T14:23:59.427Z,996.29
2018-02-11T14:25:08.647Z,996.14
2018-02-11T14:26:17.602Z,996.27
2018-02-11T14:27:26.290Z,996.28
2018-02-11T14:28:34.979Z,996.25
2018-02-11T14:29:43.934Z,996.24
2018-02-11T14:30:53.152Z,996.26
2018-02-11T14:32:01.844Z,996.33
2018-02-11T14:33:10.534Z,996.26
2018-02-11T14:34:19.224Z,996.31
2018-02-11T14:35:28.453Z,996.34
2018-02-11T14:36:37.143Z,996.31
2018-02-11T14:37:45.832Z,996.38
2018-02-11T14:38:54.821Z,996.38
2018-02-11T14:40:03.507Z,996.36
2018-02-11T14:41:12.469Z,996.33
2018-02-11T14:42:21.425Z,996.34
2018-02-11T14:43:30.796Z,996.43
2018-02-11T14:44:39.484Z,996.45
2018-02-11T14:45:48.706Z,996.41
2018-02-11T14:46:57.392Z,996.47
2018-02-11T14:48:06.084Z,996.41
2018-02-11T14:49:15.037Z,996.36
2018-02-11T14:50:24.520Z,996.39
2018-02-11T14:51:33.475Z,996.38
2018-02-11T14:52:42.434Z,996.5
2018-02-11T14:53:51.119Z,996.36
2018-02-11T14:54:59.812Z,996.51
2018-02-11T14:56:08.774Z,996.49
2018-02-11T14:57:17.460Z,996.46
2018-02-11T14:58:26.420Z,996.48
2018-02-11T14:59:35.111Z,996.55
2018-02-11T15:00:43.799Z,996.48
2018-02-11T15:01:53.019Z,996.51
2018-02-11T15:03:01.780Z,996.62
2018-02-11T15:04:10.738Z,996.55
2018-02-11T15:05:19.962Z,996.58
2018-02-11T15:06:28.649Z,996.54
2018-02-11T15:07:37.340Z,996.59
2018-02-11T15:08:46.302Z,996.61
2018-02-11T15:09:55.260Z,996.62
2018-02-11T15:11:04.482Z,996.58
2018-02-11T15:12:13.968Z,996.65
2018-02-11T15:13:22.929Z,996.72
2018-02-11T15:14:31.878Z,996.66
2018-02-11T15:15:40.569Z,996.75
2018-02-11T15:16:49.259Z,996.68
2018-02-11T15:17:58.214Z,996.8
2018-02-11T15:19:07.968Z,996.78
2018-02-11T15:20:16.661Z,996.72
2018-02-11T15:21:26.145Z,996.74
2018-02-11T15:22:35.369Z,996.7
2018-02-11T15:23:44.327Z,996.72
2018-02-11T15:24:53.018Z,996.81
2018-02-11T15:26:01.713Z,996.73
2018-02-11T15:27:10.675Z,996.81
2018-02-11T15:28:19.898Z,996.8
2018-02-11T15:29:28.854Z,996.83
2018-02-11T15:30:38.388Z,996.83
2018-02-11T15:31:47.391Z,996.8
2018-02-11T15:32:56.298Z,996.85
2018-02-11T15:34:05.254Z,996.87
2018-02-11T15:35:14.216Z,996.9
2018-02-11T15:36:23.506Z,996.92
2018-02-11T15:37:32.407Z,996.91
2018-02-11T15:38:41.096Z,996.84
2018-02-11T15:39:50.316Z,996.83
2018-02-11T15:40:59.008Z,996.9
2018-02-11T15:42:08.234Z,996.91
2018-02-11T15:43:17.455Z,996.89
2018-02-11T15:44:26.146Z,996.96
2018-02-11T15:45:34.835Z,996.91
2018-02-11T15:46:43.527Z,996.94
2018-02-11T15:47:52.221Z,996.99
2018-02-11T15:49:01.974Z,996.95
2018-02-11T15:50:11.197Z,996.99
2018-02-11T15:51:20.154Z,996.98
2018-02-11T15:52:29.108Z,997.05
2018-02-11T15:53:38.335Z,997.04
2018-02-11T15:54:47.292Z,996.97
2018-02-11T15:55:56.512Z,997
2018-02-11T15:57:06.000Z,996.98
2018-02-11T15:58:14.960Z,997.06
2018-02-11T15:59:24.182Z,997.06
2018-02-11T16:00:33.404Z,997.06
2018-02-11T16:01:43.165Z,997.12
2018-02-11T16:02:52.117Z,997.18
2018-02-11T16:04:01.069Z,997.12
2018-02-11T16:05:10.024Z,997.1
2018-02-11T16:06:18.712Z,997.11
2018-02-11T16:07:27.671Z,997.17
2018-02-11T16:08:36.631Z,997.23
2018-02-11T16:09:45.856Z,997.16
2018-02-11T16:10:54.546Z,997.16
2018-02-11T16:12:03.503Z,997.27
2018-02-11T16:13:12.470Z,997.31
2018-02-11T16:14:21.960Z,997.3
2018-02-11T16:15:30.649Z,997.33
2018-02-11T16:16:39.602Z,997.35
2018-02-11T16:17:48.556Z,997.42
2018-02-11T16:18:57.515Z,997.38
2018-02-11T16:20:06.737Z,997.4
2018-02-11T16:21:15.688Z,997.33
2018-02-11T16:22:25.180Z,997.38
2018-02-11T16:23:33.869Z,997.42
2018-02-11T16:24:43.114Z,997.43
2018-02-11T16:25:51.780Z,997.49
2018-02-11T16:27:00.769Z,997.4
2018-02-11T16:28:09.733Z,997.37
2018-02-11T16:29:18.490Z,997.46
2018-02-11T16:30:27.184Z,997.52
2018-02-11T16:31:35.872Z,997.5
2018-02-11T16:32:45.357Z,997.57
2018-02-11T16:33:54.054Z,997.53
2018-02-11T16:35:03.279Z,997.56
2018-02-11T16:36:11.973Z,997.6
2018-02-11T16:37:20.664Z,997.65
2018-02-11T16:38:29.367Z,997.63
2018-02-11T16:39:38.632Z,997.65
2018-02-11T16:40:47.594Z,997.67
2018-02-11T16:41:56.285Z,997.64
2018-02-11T16:43:05.246Z,997.71
2018-02-11T16:44:14.209Z,997.72
2018-02-11T16:45:23.430Z,997.79
2018-02-11T16:46:32.656Z,997.74
2018-02-11T16:47:41.349Z,997.74
2018-02-11T16:48:50.836Z,997.8
2018-02-11T16:49:59.528Z,997.89
2018-02-11T16:51:09.020Z,997.84
2018-02-11T16:52:18.159Z,997.86
2018-02-11T16:53:26.856Z,997.85
2018-02-11T16:54:35.811Z,997.89
2018-02-11T16:55:44.506Z,997.87
2018-02-11T16:56:53.725Z,997.92
2018-02-11T16:58:03.217Z,997.9
2018-02-11T16:59:12.443Z,997.93
2018-02-11T17:00:21.671Z,997.94
2018-02-11T17:01:30.365Z,997.89
2018-02-11T17:02:39.584Z,997.91
2018-02-11T17:03:48.807Z,997.93
2018-02-11T17:04:58.030Z,997.88
2018-02-11T17:06:06.987Z,997.82
2018-02-11T17:07:15.944Z,997.93
2018-02-11T17:08:24.900Z,997.86
2018-02-11T17:09:33.855Z,997.93
2018-02-11T17:10:42.813Z,997.96
2018-02-11T17:11:52.035Z,997.98
2018-02-11T17:13:01.523Z,997.91
2018-02-11T17:14:10.212Z,997.99
2018-02-11T17:15:19.171Z,997.96
2018-02-11T17:16:27.863Z,998
2018-02-11T17:17:36.825Z,998.03
2018-02-11T17:18:46.052Z,998.02
2018-02-11T17:19:54.752Z,998.05
2018-02-11T17:21:03.710Z,998.02
2018-02-11T17:22:12.666Z,998.02
2018-02-11T17:23:21.628Z,998.06
2018-02-11T17:24:31.112Z,998.08
2018-02-11T17:25:40.376Z,998.11
2018-02-11T17:26:49.097Z,998.03
2018-02-11T17:27:57.789Z,998.08
2018-02-11T17:29:06.478Z,998.07
2018-02-11T17:30:15.170Z,998.1
2018-02-11T17:31:23.861Z,998.09
2018-02-11T17:32:32.817Z,998.11
2018-02-11T17:33:41.508Z,998.15
2018-02-11T17:34:50.462Z,998.1
2018-02-11T17:35:59.693Z,998.11
2018-02-11T17:37:08.649Z,998.15
2018-02-11T17:38:17.878Z,998.24
2018-02-11T17:39:26.840Z,998.13
2018-02-11T17:40:35.794Z,998.22
2018-02-11T17:41:44.748Z,998.21
2018-02-11T17:42:53.711Z,998.21
2018-02-11T17:44:02.402Z,998.23
2018-02-11T17:45:11.629Z,998.26
2018-02-11T17:46:20.587Z,998.27
2018-02-11T17:47:29.548Z,998.29
2018-02-11T17:48:38.770Z,998.3
2018-02-11T17:49:47.997Z,998.28
2018-02-11T17:50:56.953Z,998.31
2018-02-11T17:52:05.914Z,998.3
2018-02-11T17:53:14.871Z,998.33
2018-02-11T17:54:23.829Z,998.34
2018-02-11T17:55:32.785Z,998.34
2018-02-11T17:56:41.477Z,998.4
2018-02-11T17:57:50.167Z,998.39
2018-02-11T17:58:59.121Z,998.38
2018-02-11T18:00:08.084Z,998.39
2018-02-11T18:01:16.781Z,998.41
2018-02-11T18:02:25.749Z,998.41
2018-02-11T18:03:34.442Z,998.48
2018-02-11T18:04:43.134Z,998.48
2018-02-11T18:05:52.089Z,998.49
2018-02-11T18:07:00.782Z,998.51
2018-02-11T18:08:09.741Z,998.49
2018-02-11T18:09:19.292Z,998.52
2018-02-11T18:10:28.516Z,998.52
2018-02-11T18:11:37.209Z,998.52
2018-02-11T18:12:45.903Z,998.52
2018-02-11T18:13:54.857Z,998.54
2018-02-11T18:15:03.550Z,998.55
2018-02-11T18:16:12.787Z,998.57
2018-02-11T18:17:21.484Z,998.58
2018-02-11T18:18:30.972Z,998.61
2018-02-11T18:19:40.459Z,998.66
2018-02-11T18:20:49.444Z,998.64
2018-02-11T18:21:58.134Z,998.66
2018-02-11T18:23:07.622Z,998.68
2018-02-11T18:24:16.581Z,998.72
2018-02-11T18:25:25.535Z,998.7
2018-02-11T18:26:34.500Z,998.72
2018-02-11T18:27:43.991Z,998.75
2018-02-11T18:28:52.681Z,998.76
2018-02-11T18:30:01.639Z,998.79
2018-02-11T18:31:10.862Z,998.8
2018-02-11T18:32:19.551Z,998.78
2018-02-11T18:33:28.776Z,998.84
2018-02-11T18:34:38.000Z,998.85
2018-02-11T18:35:46.708Z,998.83
2018-02-11T18:36:55.666Z,998.81
2018-02-11T18:38:04.629Z,998.88
2018-02-11T18:39:14.381Z,998.88
2018-02-11T18:40:23.599Z,998.88
2018-02-11T18:41:32.557Z,998.91
2018-02-11T18:42:41.521Z,998.89
2018-02-11T18:43:50.471Z,998.97
2018-02-11T18:44:59.695Z,999.02
2018-02-11T18:46:08.914Z,999.06
2018-02-11T18:47:17.871Z,999.06
2018-02-11T18:48:26.827Z,999.1
2018-02-11T18:49:35.788Z,999.1
2018-02-11T18:50:44.742Z,999.12
2018-02-11T18:51:54.231Z,999.14
2018-02-11T18:53:02.921Z,999.19
2018-02-11T18:54:12.147Z,999.2
2018-02-11T18:55:21.373Z,999.19
2018-02-11T18:56:30.328Z,999.18
2018-02-11T18:57:39.021Z,999.22
2018-02-11T18:58:47.715Z,999.22
2018-02-11T18:59:56.406Z,999.21
2018-02-11T19:01:05.098Z,999.23
2018-02-11T19:02:14.337Z,999.26
2018-02-11T19:03:23.031Z,999.23
2018-02-11T19:04:31.721Z,999.21
2018-02-11T19:05:40.679Z,999.27
2018-02-11T19:06:49.373Z,999.29
2018-02-11T19:07:58.063Z,999.28
2018-02-11T19:09:07.024Z,999.31
2018-02-11T19:10:15.714Z,999.31
2018-02-11T19:11:24.938Z,999.32
2018-02-11T19:12:34.173Z,999.26
2018-02-11T19:13:43.133Z,999.26
2018-02-11T19:14:51.820Z,999.3
2018-02-11T19:16:01.051Z,999.28
2018-02-11T19:17:10.010Z,999.33
2018-02-11T19:18:18.966Z,999.28
2018-02-11T19:19:27.932Z,999.29
2018-02-11T19:20:36.619Z,999.3
2018-02-11T19:21:45.841Z,999.39
2018-02-11T19:22:54.535Z,999.34
2018-02-11T19:24:03.226Z,999.35
2018-02-11T19:25:11.915Z,999.41
2018-02-11T19:26:20.609Z,999.45
2018-02-11T19:27:29.842Z,999.42
2018-02-11T19:28:38.804Z,999.41
2018-02-11T19:29:47.646Z,999.44
2018-02-11T19:30:56.874Z,999.44
2018-02-11T19:32:06.098Z,999.39
2018-02-11T19:33:15.069Z,999.37
2018-02-11T19:34:24.295Z,999.39
2018-02-11T19:35:33.515Z,999.39
2018-02-11T19:36:42.203Z,999.43
2018-02-11T19:37:51.424Z,999.48
2018-02-11T19:39:00.114Z,999.5
2018-02-11T19:40:09.334Z,999.5
2018-02-11T19:41:18.028Z,999.51
2018-02-11T19:42:26.986Z,999.54
2018-02-11T19:43:35.938Z,999.6
2018-02-11T19:44:44.894Z,999.59
2018-02-11T19:45:53.589Z,999.58
2018-02-11T19:47:02.545Z,999.58
2018-02-11T19:48:11.766Z,999.57
2018-02-11T19:49:20.990Z,999.55
2018-02-11T19:50:30.485Z,999.62
2018-02-11T19:51:39.445Z,999.64
2018-02-11T19:52:48.145Z,999.68
2018-02-11T19:53:57.370Z,999.71
2018-02-11T19:55:06.591Z,999.69
2018-02-11T19:56:15.642Z,999.68
2018-02-11T19:57:25.409Z,999.69
2018-02-11T19:58:34.368Z,999.65
2018-02-11T19:59:43.592Z,999.71
2018-02-11T20:00:52.283Z,999.74
2018-02-11T20:02:01.507Z,999.72
2018-02-11T20:03:11.268Z,999.75
2018-02-11T20:04:20.487Z,999.72
2018-02-11T20:05:29.445Z,999.7
2018-02-11T20:06:38.137Z,999.72
2018-02-11T20:07:47.363Z,999.71
2018-02-11T20:08:56.323Z,999.75
2018-02-11T20:10:05.014Z,999.75
2018-02-11T20:11:14.236Z,999.74
2018-02-11T20:12:23.468Z,999.83
2018-02-11T20:13:32.157Z,999.79
2018-02-11T20:14:40.876Z,999.82
2018-02-11T20:15:49.837Z,999.83
2018-02-11T20:16:58.528Z,999.81
2018-02-11T20:18:07.492Z,999.87
2018-02-11T20:19:16.449Z,999.86
2018-02-11T20:20:25.142Z,999.91
2018-02-11T20:21:33.834Z,999.92
2018-02-11T20:22:43.058Z,999.94
2018-02-11T20:23:51.746Z,1000.03
2018-02-11T20:25:00.710Z,1000.04
2018-02-11T20:26:09.674Z,1000.02
2018-02-11T20:27:18.632Z,1000.06
2018-02-11T20:28:27.323Z,1000.07
2018-02-11T20:29:36.291Z,1000.05
2018-02-11T20:30:44.982Z,1000.07
2018-02-11T20:31:54.470Z,1000.07
2018-02-11T20:33:03.439Z,1000.02
2018-02-11T20:34:12.131Z,1000.05
2018-02-11T20:35:20.823Z,1000.04
2018-02-11T20:36:29.788Z,1000.08
2018-02-11T20:37:38.743Z,1000.13
2018-02-11T20:38:48.229Z,1000.12
2018-02-11T20:39:56.918Z,1000.13
2018-02-11T20:41:05.878Z,1000.16
2018-02-11T20:42:14.834Z,1000.15
2018-02-11T20:43:23.833Z,1000.16
2018-02-11T20:44:32.791Z,1000.18
2018-02-11T20:45:41.480Z,1000.14
2018-02-11T20:46:50.437Z,1000.16
2018-02-11T20:47:59.397Z,1000.23
2018-02-11T20:49:08.888Z,1000.21
2018-02-11T20:50:18.109Z,1000.23
2018-02-11T20:51:27.063Z,1000.28
2018-02-11T20:52:36.017Z,1000.3
2018-02-11T20:53:44.969Z,1000.23
2018-02-11T20:54:54.454Z,1000.28
2018-02-11T20:56:03.413Z,1000.25
2018-02-11T20:57:12.368Z,1000.28
2018-02-11T20:58:21.590Z,1000.27
2018-02-11T20:59:30.809Z,1000.33
2018-02-11T21:00:39.767Z,1000.3
2018-02-11T21:01:48.455Z,1000.35
2018-02-11T21:02:57.411Z,1000.3
2018-02-11T21:04:06.893Z,1000.33
2018-02-11T21:05:15.851Z,1000.41
2018-02-11T21:06:24.542Z,1000.36
2018-02-11T21:07:33.497Z,1000.38
2018-02-11T21:08:42.459Z,1000.45
2018-02-11T21:09:51.150Z,1000.44
2018-02-11T21:11:00.903Z,1000.43
2018-02-11T21:12:09.858Z,1000.5
2018-02-11T21:13:18.816Z,1000.44
2018-02-11T21:14:27.501Z,1000.45
2018-02-11T21:15:36.998Z,1000.45
2018-02-11T21:16:45.967Z,1000.51
2018-02-11T21:17:54.916Z,1000.53
2018-02-11T21:19:03.611Z,1000.51
2018-02-11T21:20:12.298Z,1000.51
2018-02-11T21:21:21.283Z,1000.53
2018-02-11T21:22:30.213Z,1000.61
2018-02-11T21:23:39.176Z,1000.57
2018-02-11T21:24:48.133Z,1000.63
2018-02-11T21:25:57.083Z,1000.61
2018-02-11T21:27:06.094Z,1000.63
2018-02-11T21:28:15.051Z,1000.62
2018-02-11T21:29:24.329Z,1000.66
2018-02-11T21:30:33.819Z,1000.66
2018-02-11T21:31:42.509Z,1000.69
2018-02-11T21:32:51.202Z,1000.75
2018-02-11T21:33:59.889Z,1000.73
2018-02-11T21:35:09.118Z,1000.72
2018-02-11T21:36:17.810Z,1000.76
2018-02-11T21:37:27.032Z,1000.75
2018-02-11T21:38:35.719Z,1000.8
2018-02-11T21:39:44.676Z,1000.77
2018-02-11T21:40:53.368Z,1000.79
2018-02-11T21:42:02.865Z,1000.82
2018-02-11T21:43:11.820Z,1000.77
2018-02-11T21:44:21.041Z,1000.76
2018-02-11T21:45:30.001Z,1000.73
2018-02-11T21:46:38.956Z,1000.77
2018-02-11T21:47:47.916Z,1000.81
2018-02-11T21:48:56.877Z,1000.82
2018-02-11T21:50:05.828Z,1000.89
2018-02-11T21:51:15.366Z,1000.91
2018-02-11T21:52:24.059Z,1000.89
2018-02-11T21:53:33.285Z,1000.92
2018-02-11T21:54:42.237Z,1000.94
2018-02-11T21:55:51.193Z,1000.98
2018-02-11T21:57:00.141Z,1001
2018-02-11T21:58:09.629Z,1001.05
2018-02-11T21:59:18.851Z,1001.07
2018-02-11T22:00:27.815Z,1001.13
2018-02-11T22:01:36.497Z,1001.14
2018-02-11T22:02:45.457Z,1001.16
2018-02-11T22:03:54.674Z,1001.11
2018-02-11T22:05:03.906Z,1001.05
2018-02-11T22:06:12.862Z,1001.05
2018-02-11T22:07:21.555Z,1001.14
2018-02-11T22:08:30.508Z,1001.14
2018-02-11T22:09:39.199Z,1001.15
2018-02-11T22:10:48.154Z,1001.13
2018-02-11T22:11:56.844Z,1001.09
2018-02-11T22:13:06.074Z,1001.14
2018-02-11T22:14:15.033Z,1001.1
2018-02-11T22:15:23.721Z,1001.1
2018-02-11T22:16:32.410Z,1001.1
2018-02-11T22:17:41.365Z,1001.15
2018-02-11T22:18:50.321Z,1001.15
2018-02-11T22:19:59.547Z,1001.18
2018-02-11T22:21:08.243Z,1001.16
2018-02-11T22:22:17.727Z,1001.16
2018-02-11T22:23:26.414Z,1001.15
2018-02-11T22:24:35.367Z,1001.16
2018-02-11T22:25:44.062Z,1001.19
2018-02-11T22:26:53.545Z,1001.19
2018-02-11T22:28:02.503Z,1001.22
2018-02-11T22:29:11.456Z,1001.24
2018-02-11T22:30:20.675Z,1001.21
2018-02-11T22:31:29.628Z,1001.21
2018-02-11T22:32:39.112Z,1001.22
2018-02-11T22:33:48.659Z,1001.27
2018-02-11T22:34:57.610Z,1001.28
2018-02-11T22:36:06.567Z,1001.24
2018-02-11T22:37:16.096Z,1001.25
2018-02-11T22:38:24.810Z,1001.23
2018-02-11T22:39:34.028Z,1001.2
2018-02-11T22:40:42.987Z,1001.19
2018-02-11T22:41:51.938Z,1001.23
2018-02-11T22:43:00.892Z,1001.23
2018-02-11T22:44:09.585Z,1001.27
2018-02-11T22:45:18.541Z,1001.27
2018-02-11T22:46:27.762Z,1001.27
2018-02-11T22:47:36.451Z,1001.34
2018-02-11T22:48:45.408Z,1001.35
2018-02-11T22:49:54.098Z,1001.36
2018-02-11T22:51:03.054Z,1001.42
2018-02-11T22:52:12.011Z,1001.39
2018-02-11T22:53:20.697Z,1001.37
2018-02-11T22:54:29.652Z,1001.35
2018-02-11T22:55:38.342Z,1001.37
2018-02-11T22:56:47.031Z,1001.37
2018-02-11T22:57:56.251Z,1001.39
2018-02-11T22:59:05.475Z,1001.36